Time;durP1;ratioP1;P1;durP2;ratioP2;P2;SDS_P1;SDS_P2;PMS_P1;PMS_P2;Temp;Humidity;BMP_temperature;BMP_pressure;BME280_temperature;BME280_humidity;BME280_pressure;Samples;Min_cycle;Max_cycle;Signal;HPM_P1;HPM_P2
2021/12/23 00:01:36;;;;;;;11.27;9.50;;;;;;;;;;5066321;28;20422;-53
2021/12/23 00:04:03;;;;;;;11.70;10.07;;;;;;;;;;5061606;28;21086;-54
2021/12/23 00:06:29;;;;;;;11.00;9.10;;;;;;;;;;5066220;28;20427;-52
2021/12/23 00:08:59;;;;;;;11.07;9.10;;;;;;;;;;5065353;28;20435;-52
2021/12/23 00:11:26;;;;;;;12.37;9.43;;;;;;;;;;5063833;28;20851;-53
2021/12/23 00:14:02;;;;;;;12.03;9.37;;;;;;;;;;5062055;28;20434;-54
2021/12/23 00:16:43;;;;;;;10.03;8.17;;;;;;;;;;5066786;28;20431;-53
2021/12/23 00:19:21;;;;;;;12.37;8.80;;;;;;;;;;5065963;28;20497;-54
2021/12/23 00:24:33;;;;;;;12.40;10.07;;;;;;;;;;5060901;28;20481;-53
2021/12/23 00:27:02;;;;;;;13.10;10.13;;;;;;;;;;5064841;28;20423;-53
2021/12/23 00:29:28;;;;;;;11.03;8.60;;;;;;;;;;5064840;28;20905;-54
2021/12/23 00:31:54;;;;;;;10.87;8.87;;;;;;;;;;5065201;28;20574;-54
2021/12/23 00:34:21;;;;;;;12.33;9.33;;;;;;;;;;5060792;28;20498;-53
2021/12/23 00:36:47;;;;;;;13.57;9.13;;;;;;;;;;5066437;28;20441;-54
2021/12/23 00:39:15;;;;;;;10.87;9.30;;;;;;;;;;5064330;28;21261;-53
2021/12/23 00:41:43;;;;;;;12.03;9.87;;;;;;;;;;5066229;28;20426;-53
2021/12/23 00:44:10;;;;;;;10.63;9.53;;;;;;;;;;5061930;28;20455;-53
2021/12/23 00:46:36;;;;;;;14.10;9.57;;;;;;;;;;5064087;28;20435;-53
2021/12/23 00:49:05;;;;;;;14.07;9.83;;;;;;;;;;5065124;28;20430;-54
2021/12/23 00:51:31;;;;;;;12.20;9.67;;;;;;;;;;5068793;28;20484;-53
2021/12/23 00:54:04;;;;;;;11.90;8.77;;;;;;;;;;5063501;28;20425;-53
2021/12/23 00:56:35;;;;;;;11.67;9.30;;;;;;;;;;5069053;28;20458;-53
2021/12/23 00:59:01;;;;;;;13.20;10.27;;;;;;;;;;5064271;28;20436;-53
2021/12/23 01:01:28;;;;;;;15.90;10.03;;;;;;;;;;5051741;28;20500;-54
2021/12/23 01:03:54;;;;;;;12.90;10.07;;;;;;;;;;5065246;28;20474;-54
2021/12/23 01:06:21;;;;;;;12.07;10.03;;;;;;;;;;5068496;28;20422;-55
2021/12/23 01:08:47;;;;;;;13.30;8.67;;;;;;;;;;5082700;28;20430;-53
2021/12/23 01:11:13;;;;;;;10.80;8.57;;;;;;;;;;5086052;28;20472;-53
2021/12/23 01:13:47;;;;;;;11.00;9.17;;;;;;;;;;5086954;28;20219;-55
2021/12/23 01:16:24;;;;;;;11.53;8.73;;;;;;;;;;5052848;28;20508;-54
2021/12/23 01:18:54;;;;;;;13.10;8.70;;;;;;;;;;5065567;28;20444;-52
2021/12/23 01:21:20;;;;;;;13.27;9.90;;;;;;;;;;5087562;28;20970;-52
2021/12/23 01:23:52;;;;;;;12.53;9.70;;;;;;;;;;5063527;28;20826;-53
2021/12/23 01:26:21;;;;;;;11.77;9.07;;;;;;;;;;5067721;28;20438;-53
2021/12/23 01:28:48;;;;;;;12.67;9.53;;;;;;;;;;5058481;28;20430;-53
2021/12/23 01:31:14;;;;;;;11.47;9.30;;;;;;;;;;5068245;28;20858;-51
2021/12/23 01:33:41;;;;;;;11.87;9.13;;;;;;;;;;5063837;28;20825;-53
2021/12/23 01:36:10;;;;;;;12.90;10.03;;;;;;;;;;5072424;28;20783;-53
2021/12/23 01:38:44;;;;;;;12.80;9.53;;;;;;;;;;5066811;28;20854;-52
2021/12/23 01:41:10;;;;;;;12.53;9.47;;;;;;;;;;5071947;28;20425;-53
2021/12/23 01:43:37;;;;;;;12.77;10.13;;;;;;;;;;5068191;28;20499;-53
2021/12/23 01:46:03;;;;;;;22.50;10.20;;;;;;;;;;5089549;28;20916;-52
2021/12/23 01:48:29;;;;;;;13.70;9.93;;;;;;;;;;5090364;28;20414;-52
2021/12/23 01:50:56;;;;;;;13.97;10.23;;;;;;;;;;5061082;28;20502;-53
2021/12/23 01:53:22;;;;;;;10.17;9.00;;;;;;;;;;5093988;28;20425;-52
2021/12/23 01:55:48;;;;;;;14.20;10.27;;;;;;;;;;5083201;28;20434;-53
2021/12/23 01:58:15;;;;;;;13.80;8.93;;;;;;;;;;5085752;28;20505;-53
2021/12/23 02:00:44;;;;;;;13.87;10.37;;;;;;;;;;5089646;28;20429;-53
2021/12/23 02:03:10;;;;;;;11.87;9.83;;;;;;;;;;5093611;28;20922;-55
2021/12/23 02:05:37;;;;;;;12.57;9.60;;;;;;;;;;5090601;28;20548;-54
2021/12/23 02:08:03;;;;;;;12.43;9.90;;;;;;;;;;5087978;28;20469;-54
2021/12/23 02:10:30;;;;;;;11.27;9.27;;;;;;;;;;5087731;28;20425;-53
2021/12/23 02:12:57;;;;;;;12.80;9.23;;;;;;;;;;5071706;28;21088;-54
2021/12/23 02:15:24;;;;;;;14.43;10.30;;;;;;;;;;5089428;28;20432;-54
2021/12/23 02:17:51;;;;;;;12.90;9.67;;;;;;;;;;5055060;28;20902;-53
2021/12/23 02:20:18;;;;;;;12.17;10.10;;;;;;;;;;5082432;28;20764;-54
2021/12/23 02:22:45;;;;;;;16.23;9.80;;;;;;;;;;5091554;28;20909;-53
2021/12/23 02:25:12;;;;;;;15.67;11.80;;;;;;;;;;5086636;28;20865;-54
2021/12/23 02:27:38;;;;;;;13.93;10.13;;;;;;;;;;5055047;28;20426;-54
2021/12/23 02:30:06;;;;;;;13.57;9.90;;;;;;;;;;5070934;28;20783;-53
2021/12/23 02:32:35;;;;;;;14.97;10.53;;;;;;;;;;5077673;28;20994;-52
2021/12/23 02:35:01;;;;;;;14.33;10.10;;;;;;;;;;5076864;28;20418;-54
2021/12/23 02:37:27;;;;;;;12.73;10.30;;;;;;;;;;5081317;28;20497;-52
2021/12/23 02:39:54;;;;;;;13.03;10.13;;;;;;;;;;5070311;28;20438;-55
2021/12/23 02:42:20;;;;;;;13.07;9.50;;;;;;;;;;5095946;28;20421;-54
2021/12/23 02:44:46;;;;;;;13.50;10.47;;;;;;;;;;5087811;28;20862;-53
2021/12/23 02:47:13;;;;;;;11.60;9.43;;;;;;;;;;5074565;28;20417;-54
2021/12/23 02:49:39;;;;;;;13.33;10.10;;;;;;;;;;5073757;28;20495;-54
2021/12/23 02:52:06;;;;;;;13.13;10.23;;;;;;;;;;5073592;28;20841;-53
2021/12/23 02:54:32;;;;;;;12.43;10.60;;;;;;;;;;5087627;28;20417;-53
2021/12/23 02:57:00;;;;;;;13.37;10.77;;;;;;;;;;5070259;28;20454;-54
2021/12/23 02:59:26;;;;;;;11.73;9.53;;;;;;;;;;5067141;28;20425;-54
2021/12/23 03:01:52;;;;;;;12.10;9.43;;;;;;;;;;5087045;28;20496;-54
2021/12/23 03:04:18;;;;;;;13.10;10.37;;;;;;;;;;5066126;28;20556;-53
2021/12/23 03:06:45;;;;;;;14.13;10.57;;;;;;;;;;5070235;28;20482;-54
2021/12/23 03:09:11;;;;;;;12.87;10.10;;;;;;;;;;5071323;28;20972;-52
2021/12/23 03:11:40;;;;;;;14.37;10.47;;;;;;;;;;5070030;28;20468;-53
2021/12/23 03:14:07;;;;;;;16.17;11.97;;;;;;;;;;5066774;28;20594;-53
2021/12/23 03:16:35;;;;;;;13.40;10.00;;;;;;;;;;5069475;28;20429;-53
2021/12/23 03:19:01;;;;;;;14.37;10.60;;;;;;;;;;5082781;28;20856;-53
2021/12/23 03:21:28;;;;;;;16.30;10.97;;;;;;;;;;5070049;28;20764;-54
2021/12/23 03:23:54;;;;;;;12.17;10.40;;;;;;;;;;5068642;28;20461;-53
2021/12/23 03:26:21;;;;;;;14.77;11.23;;;;;;;;;;5087853;28;20418;-53
2021/12/23 03:28:47;;;;;;;15.23;11.37;;;;;;;;;;5087955;28;20844;-54
2021/12/23 03:31:13;;;;;;;14.63;11.10;;;;;;;;;;5068985;28;20426;-53
2021/12/23 03:33:43;;;;;;;14.07;10.27;;;;;;;;;;5087254;28;20418;-54
2021/12/23 03:36:10;;;;;;;13.97;10.23;;;;;;;;;;5067872;28;20429;-54
2021/12/23 03:38:36;;;;;;;13.57;10.47;;;;;;;;;;5069797;28;20430;-54
2021/12/23 03:41:03;;;;;;;14.07;10.67;;;;;;;;;;5069414;28;20441;-54
2021/12/23 03:43:29;;;;;;;15.00;11.50;;;;;;;;;;5065182;28;20880;-53
2021/12/23 03:45:56;;;;;;;14.63;10.73;;;;;;;;;;5065403;28;20925;-54
2021/12/23 03:48:22;;;;;;;15.07;11.60;;;;;;;;;;5083170;28;20943;-54
2021/12/23 03:50:48;;;;;;;15.20;11.17;;;;;;;;;;5063843;28;20459;-54
2021/12/23 03:53:18;;;;;;;13.20;10.47;;;;;;;;;;5050271;28;20418;-54
2021/12/23 03:55:44;;;;;;;15.87;11.20;;;;;;;;;;5048499;28;20997;-54
2021/12/23 03:58:11;;;;;;;12.83;10.63;;;;;;;;;;5048811;28;20859;-54
2021/12/23 04:00:37;;;;;;;15.33;10.77;;;;;;;;;;5066625;28;20457;-55
2021/12/23 04:03:03;;;;;;;13.50;10.90;;;;;;;;;;5048931;28;20859;-55
2021/12/23 04:05:30;;;;;;;13.87;9.90;;;;;;;;;;5049744;28;20458;-53
2021/12/23 04:07:56;;;;;;;12.77;10.17;;;;;;;;;;5048846;28;20949;-54
2021/12/23 04:10:22;;;;;;;14.43;10.63;;;;;;;;;;5063552;28;20418;-55
2021/12/23 04:12:50;;;;;;;14.17;10.60;;;;;;;;;;5066840;28;20423;-54
2021/12/23 04:15:17;;;;;;;17.53;11.30;;;;;;;;;;5049028;28;20418;-54
2021/12/23 04:17:43;;;;;;;17.33;11.53;;;;;;;;;;5066717;28;20419;-54
2021/12/23 04:20:19;;;;;;;16.13;12.17;;;;;;;;;;5068037;28;20419;-54
2021/12/23 04:22:47;;;;;;;14.83;10.50;;;;;;;;;;5048608;28;20414;-55
2021/12/23 04:25:15;;;;;;;15.50;10.33;;;;;;;;;;5047540;28;20541;-55
2021/12/23 04:27:41;;;;;;;15.57;12.03;;;;;;;;;;5065806;28;20851;-53
2021/12/23 04:30:08;;;;;;;15.97;11.07;;;;;;;;;;5045078;28;20668;-54
2021/12/23 04:32:34;;;;;;;13.83;10.63;;;;;;;;;;5063928;28;20425;-54
2021/12/23 04:35:00;;;;;;;12.80;10.27;;;;;;;;;;5066842;28;20859;-54
2021/12/23 04:37:26;;;;;;;14.13;11.33;;;;;;;;;;5067516;28;20894;-53
2021/12/23 04:39:53;;;;;;;15.93;11.17;;;;;;;;;;5048005;28;20419;-54
2021/12/23 04:42:19;;;;;;;16.40;11.27;;;;;;;;;;5048563;28;20839;-54
2021/12/23 04:44:46;;;;;;;14.87;11.43;;;;;;;;;;5047616;28;20465;-53
2021/12/23 04:47:12;;;;;;;14.67;10.60;;;;;;;;;;5047310;28;20419;-53
2021/12/23 04:49:38;;;;;;;15.20;11.77;;;;;;;;;;5066883;28;20427;-55
2021/12/23 04:52:05;;;;;;;18.00;12.07;;;;;;;;;;5058124;28;20451;-54
2021/12/23 04:54:31;;;;;;;14.70;11.30;;;;;;;;;;5065269;28;20419;-55
2021/12/23 04:56:57;;;;;;;14.90;11.83;;;;;;;;;;5048750;28;20485;-54
2021/12/23 04:59:23;;;;;;;16.07;11.93;;;;;;;;;;5066597;28;20895;-54
2021/12/23 05:01:50;;;;;;;15.77;11.80;;;;;;;;;;5050680;28;20780;-52
2021/12/23 05:04:17;;;;;;;15.20;11.67;;;;;;;;;;5048517;28;20451;-53
2021/12/23 05:06:43;;;;;;;14.73;10.73;;;;;;;;;;5056958;28;20427;-53
2021/12/23 05:09:09;;;;;;;16.37;11.90;;;;;;;;;;5030060;28;20423;-52
2021/12/23 05:11:35;;;;;;;14.67;11.97;;;;;;;;;;5060924;28;20422;-53
2021/12/23 05:14:02;;;;;;;14.47;11.87;;;;;;;;;;5070325;28;20417;-53
2021/12/23 05:16:28;;;;;;;16.07;11.27;;;;;;;;;;5069120;28;20992;-52
2021/12/23 05:18:54;;;;;;;15.40;12.03;;;;;;;;;;5056691;28;20525;-53
2021/12/23 05:21:21;;;;;;;16.60;11.47;;;;;;;;;;5070322;28;20474;-53
2021/12/23 05:23:47;;;;;;;16.27;12.27;;;;;;;;;;5035088;28;20805;-53
2021/12/23 05:26:13;;;;;;;16.30;13.07;;;;;;;;;;5051344;28;20438;-53
2021/12/23 05:28:40;;;;;;;17.33;12.30;;;;;;;;;;5052194;28;20411;-53
2021/12/23 05:31:06;;;;;;;15.73;11.93;;;;;;;;;;5050511;28;20490;-54
2021/12/23 05:33:33;;;;;;;17.20;12.23;;;;;;;;;;5051912;28;20952;-53
2021/12/23 05:35:59;;;;;;;14.37;11.37;;;;;;;;;;5052111;28;20467;-53
2021/12/23 05:38:25;;;;;;;17.83;12.50;;;;;;;;;;5051279;28;20494;-52
2021/12/23 05:40:55;;;;;;;15.63;11.90;;;;;;;;;;5051721;28;20419;-53
2021/12/23 05:43:21;;;;;;;16.63;12.03;;;;;;;;;;5047295;28;20460;-53
2021/12/23 05:45:47;;;;;;;17.77;12.33;;;;;;;;;;5046317;28;20455;-53
2021/12/23 05:48:14;;;;;;;17.60;12.83;;;;;;;;;;5069081;28;20480;-54
2021/12/23 05:50:40;;;;;;;16.67;12.33;;;;;;;;;;5069270;28;20982;-53
2021/12/23 05:53:07;;;;;;;17.50;13.40;;;;;;;;;;5053830;28;20399;-52
2021/12/23 05:55:33;;;;;;;17.13;11.33;;;;;;;;;;5064894;28;20432;-53
2021/12/23 05:57:59;;;;;;;15.50;12.47;;;;;;;;;;5062903;28;20426;-53
2021/12/23 06:00:28;;;;;;;16.53;12.03;;;;;;;;;;5067959;28;20820;-55
2021/12/23 06:02:55;;;;;;;16.97;12.13;;;;;;;;;;5066493;28;20915;-53
2021/12/23 06:05:21;;;;;;;18.17;12.60;;;;;;;;;;5069064;28;20879;-53
2021/12/23 06:07:47;;;;;;;16.60;12.87;;;;;;;;;;5066587;28;20934;-53
2021/12/23 06:10:14;;;;;;;15.10;11.60;;;;;;;;;;5066586;28;20426;-53
2021/12/23 06:12:40;;;;;;;14.60;12.00;;;;;;;;;;5047471;28;20438;-53
2021/12/23 06:15:07;;;;;;;18.63;12.77;;;;;;;;;;5029548;28;20806;-53
2021/12/23 06:17:33;;;;;;;18.83;12.77;;;;;;;;;;5064895;28;20975;-52
2021/12/23 06:19:59;;;;;;;16.90;13.27;;;;;;;;;;5069110;28;20403;-54
2021/12/23 06:22:26;;;;;;;16.67;12.53;;;;;;;;;;5069718;28;20411;-52
2021/12/23 06:24:52;;;;;;;17.73;12.77;;;;;;;;;;5049653;28;21032;-56
2021/12/23 06:27:19;;;;;;;13.63;11.00;;;;;;;;;;5067595;28;20418;-52
2021/12/23 06:29:45;;;;;;;14.93;11.43;;;;;;;;;;5067692;28;20416;-53
2021/12/23 06:32:11;;;;;;;16.40;12.27;;;;;;;;;;5068078;28;20476;-53
2021/12/23 06:34:37;;;;;;;16.50;11.63;;;;;;;;;;5051422;28;20501;-53
2021/12/23 06:37:04;;;;;;;15.53;13.10;;;;;;;;;;5069465;28;20426;-54
2021/12/23 06:39:31;;;;;;;17.17;12.30;;;;;;;;;;5061748;28;20501;-54
2021/12/23 06:41:57;;;;;;;17.63;12.70;;;;;;;;;;5051099;28;20439;-54
2021/12/23 06:44:23;;;;;;;15.83;12.57;;;;;;;;;;5061351;28;21093;-54
2021/12/23 06:46:50;;;;;;;16.57;11.43;;;;;;;;;;5066633;28;20916;-53
2021/12/23 06:49:16;;;;;;;16.20;11.70;;;;;;;;;;5063490;28;20922;-54
2021/12/23 06:51:44;;;;;;;16.37;12.33;;;;;;;;;;5069184;28;20984;-53
2021/12/23 06:54:11;;;;;;;14.10;11.50;;;;;;;;;;5063835;28;20426;-54
2021/12/23 06:56:37;;;;;;;22.23;13.03;;;;;;;;;;5041621;28;20446;-54
2021/12/23 06:59:03;;;;;;;19.90;13.43;;;;;;;;;;5068588;28;20429;-54
2021/12/23 07:01:32;;;;;;;16.13;11.97;;;;;;;;;;5066759;28;20423;-53
2021/12/23 07:06:25;;;;;;;16.50;13.03;;;;;;;;;;5069131;28;20407;-53
2021/12/23 07:08:54;;;;;;;15.40;11.80;;;;;;;;;;5066830;28;20172;-54
2021/12/23 07:11:20;;;;;;;19.27;13.23;;;;;;;;;;5068801;28;20417;-54
2021/12/23 07:13:47;;;;;;;17.33;11.77;;;;;;;;;;5083587;28;20801;-53
2021/12/23 07:16:13;;;;;;;16.17;12.33;;;;;;;;;;5068989;28;20961;-53
2021/12/23 07:18:39;;;;;;;18.20;12.83;;;;;;;;;;5064025;28;20423;-53
2021/12/23 07:21:06;;;;;;;18.63;12.30;;;;;;;;;;5071347;28;20755;-54
2021/12/23 07:23:32;;;;;;;18.63;12.67;;;;;;;;;;5069974;28;20784;-54
2021/12/23 07:25:58;;;;;;;17.20;13.60;;;;;;;;;;5065719;28;20439;-52
2021/12/23 07:28:25;;;;;;;17.30;12.30;;;;;;;;;;5060357;28;20465;-54
2021/12/23 07:30:51;;;;;;;18.50;12.33;;;;;;;;;;5066541;28;20780;-53
2021/12/23 07:33:17;;;;;;;15.73;12.50;;;;;;;;;;5066822;28;20475;-53
2021/12/23 07:35:43;;;;;;;16.67;13.33;;;;;;;;;;5064285;28;20431;-53
2021/12/23 07:38:10;;;;;;;17.13;12.50;;;;;;;;;;5066056;28;20431;-54
2021/12/23 07:40:37;;;;;;;16.53;11.43;;;;;;;;;;5063497;28;20572;-55
2021/12/23 07:43:21;;;;;;;17.07;12.47;;;;;;;;;;5066521;28;20525;-54
2021/12/23 07:45:47;;;;;;;16.50;12.20;;;;;;;;;;5064395;28;20806;-54
2021/12/23 07:48:13;;;;;;;16.47;12.03;;;;;;;;;;5061283;28;20424;-53
2021/12/23 07:50:43;;;;;;;18.53;12.47;;;;;;;;;;5072231;28;20786;-53
2021/12/23 07:53:09;;;;;;;16.93;12.70;;;;;;;;;;5080734;28;20818;-52
2021/12/23 07:55:38;;;;;;;16.33;12.23;;;;;;;;;;5065832;28;20469;-52
2021/12/23 07:58:04;;;;;;;19.73;13.43;;;;;;;;;;5064722;28;20491;-53
2021/12/23 08:00:30;;;;;;;16.77;12.77;;;;;;;;;;5059987;28;20417;-53
2021/12/23 08:02:57;;;;;;;18.43;12.47;;;;;;;;;;5084900;28;20414;-53
2021/12/23 08:05:24;;;;;;;18.90;13.10;;;;;;;;;;5078972;28;20507;-53
2021/12/23 08:07:54;;;;;;;19.90;13.37;;;;;;;;;;5065335;28;20429;-53
2021/12/23 08:10:21;;;;;;;17.30;12.10;;;;;;;;;;5065244;28;20437;-53
2021/12/23 08:12:47;;;;;;;17.67;11.90;;;;;;;;;;5069778;28;20936;-54
2021/12/23 08:15:14;;;;;;;15.67;11.53;;;;;;;;;;5080576;28;20425;-53
2021/12/23 08:17:40;;;;;;;16.57;11.87;;;;;;;;;;5075769;28;20422;-53
2021/12/23 08:20:11;;;;;;;16.17;12.17;;;;;;;;;;5084559;28;20512;-54
2021/12/23 08:22:37;;;;;;;17.03;12.37;;;;;;;;;;5051220;28;20418;-53
2021/12/23 08:25:04;;;;;;;15.30;12.53;;;;;;;;;;5067105;28;21000;-53
2021/12/23 08:27:31;;;;;;;17.83;13.17;;;;;;;;;;5064646;28;20414;-53
2021/12/23 08:29:57;;;;;;;15.33;11.73;;;;;;;;;;5072615;28;20418;-53
2021/12/23 08:32:23;;;;;;;16.40;12.60;;;;;;;;;;5078196;28;20791;-53
2021/12/23 08:34:49;;;;;;;17.40;12.47;;;;;;;;;;5081615;28;20464;-53
2021/12/23 08:37:16;;;;;;;16.40;12.73;;;;;;;;;;5064489;28;20845;-53
2021/12/23 08:39:43;;;;;;;19.83;13.97;;;;;;;;;;5060119;28;20444;-53
2021/12/23 08:42:09;;;;;;;17.90;13.37;;;;;;;;;;5066829;28;20414;-52
2021/12/23 08:44:36;;;;;;;17.63;12.47;;;;;;;;;;5064307;28;20456;-52
2021/12/23 08:47:02;;;;;;;17.77;13.20;;;;;;;;;;5068909;28;20778;-52
2021/12/23 08:49:29;;;;;;;16.27;11.63;;;;;;;;;;5089245;28;20418;-53
2021/12/23 08:51:55;;;;;;;15.47;11.77;;;;;;;;;;5077028;28;21082;-52
2021/12/23 08:54:21;;;;;;;15.93;12.50;;;;;;;;;;5054688;28;21024;-52
2021/12/23 08:56:47;;;;;;;17.83;12.30;;;;;;;;;;5065066;28;20842;-54
2021/12/23 08:59:14;;;;;;;15.10;11.53;;;;;;;;;;5050835;28;20430;-53
2021/12/23 09:01:41;;;;;;;17.50;12.47;;;;;;;;;;5069317;28;20453;-51
2021/12/23 09:04:07;;;;;;;17.67;12.37;;;;;;;;;;5066323;28;22140;-51
2021/12/23 09:06:36;;;;;;;17.33;12.27;;;;;;;;;;5058386;28;20422;-53
2021/12/23 09:09:04;;;;;;;16.73;12.47;;;;;;;;;;5051320;28;20418;-53
2021/12/23 09:11:30;;;;;;;14.23;11.20;;;;;;;;;;5050328;28;20434;-50
2021/12/23 09:13:57;;;;;;;19.13;13.70;;;;;;;;;;5068152;28;20414;-51
2021/12/23 09:16:23;;;;;;;17.53;12.43;;;;;;;;;;5034459;28;20434;-52
2021/12/23 09:18:49;;;;;;;17.97;11.93;;;;;;;;;;5065166;28;20419;-53
2021/12/23 09:21:16;;;;;;;17.43;12.10;;;;;;;;;;5042889;28;20791;-52
2021/12/23 09:23:42;;;;;;;15.37;11.90;;;;;;;;;;5069824;28;20407;-52
2021/12/23 09:26:10;;;;;;;16.93;12.23;;;;;;;;;;5069849;28;20967;-52
2021/12/23 09:33:51;;;;;;;17.03;12.90;;;;;;;;;;5070313;28;20397;-54
2021/12/23 09:36:17;;;;;;;14.60;11.53;;;;;;;;;;5068386;28;20938;-55
2021/12/23 09:38:44;;;;;;;15.17;11.53;;;;;;;;;;5045608;28;20421;-54
2021/12/23 09:41:15;;;;;;;17.13;11.93;;;;;;;;;;5043644;28;20772;-53
2021/12/23 09:43:42;;;;;;;16.83;12.10;;;;;;;;;;5035791;28;20520;-54
2021/12/23 09:46:09;;;;;;;16.43;12.07;;;;;;;;;;5064761;28;20747;-54
2021/12/23 09:48:36;;;;;;;15.93;11.43;;;;;;;;;;5067953;28;20449;-53
2021/12/23 09:51:05;;;;;;;15.53;11.93;;;;;;;;;;5050810;28;20474;-53
2021/12/23 09:53:32;;;;;;;15.97;11.63;;;;;;;;;;5051842;28;20925;-52
2021/12/23 09:55:59;;;;;;;16.23;12.00;;;;;;;;;;5050248;28;22236;-54
2021/12/23 09:58:26;;;;;;;15.17;11.93;;;;;;;;;;5062034;28;20441;-53
2021/12/23 10:00:53;;;;;;;15.53;12.40;;;;;;;;;;5069250;28;20427;-53
2021/12/23 10:03:20;;;;;;;15.37;12.00;;;;;;;;;;5067426;28;20427;-54
2021/12/23 10:05:46;;;;;;;16.07;12.97;;;;;;;;;;5067190;28;20459;-53
2021/12/23 10:08:14;;;;;;;16.03;12.07;;;;;;;;;;5067945;28;20423;-52
2021/12/23 10:11:06;;;;;;;15.37;10.93;;;;;;;;;;5069847;28;20457;-54
2021/12/23 10:28:26;;;;;;;16.60;11.27;;;;;;;;;;5060681;28;20967;-54
2021/12/23 10:30:50;;;;;;;13.67;10.33;;;;;;;;;;5064339;28;20547;-54
2021/12/23 10:38:43;;;;;;;16.40;11.33;;;;;;;;;;5071763;28;20828;-54
2021/12/23 10:41:38;;;;;;;16.77;11.87;;;;;;;;;;5068020;28;20771;-54
2021/12/23 10:44:05;;;;;;;15.77;11.20;;;;;;;;;;5038897;28;20877;-54
2021/12/23 10:46:41;;;;;;;15.30;10.97;;;;;;;;;;5036000;28;20434;-54
2021/12/23 10:49:39;;;;;;;18.93;12.23;;;;;;;;;;5065158;28;20918;-53
2021/12/23 10:52:03;;;;;;;17.57;11.20;;;;;;;;;;5071918;28;20967;-54
2021/12/23 11:00:16;;;;;;;16.93;11.50;;;;;;;;;;5087742;28;20969;-53
2021/12/23 11:03:04;;;;;;;15.10;11.53;;;;;;;;;;5087888;28;20436;-54
2021/12/23 11:05:36;;;;;;;15.87;11.67;;;;;;;;;;5070357;28;20461;-54
2021/12/23 11:10:56;;;;;;;14.83;12.23;;;;;;;;;;5089233;28;20489;-53
2021/12/23 11:38:18;;;;;;;15.33;11.67;;;;;;;;;;5088785;28;20992;-55
2021/12/23 11:45:47;;;;;;;17.90;12.30;;;;;;;;;;5079957;28;20450;-54
2021/12/23 11:48:14;;;;;;;19.43;12.03;;;;;;;;;;5064868;28;20944;-54
2021/12/23 11:50:54;;;;;;;17.97;11.70;;;;;;;;;;5081184;28;20579;-56
2021/12/23 11:53:21;;;;;;;23.20;11.70;;;;;;;;;;5087537;28;20752;-55
2021/12/23 11:55:48;;;;;;;14.10;11.23;;;;;;;;;;5046347;28;20920;-55
2021/12/23 11:58:14;;;;;;;17.50;11.97;;;;;;;;;;5087532;28;20897;-55
2021/12/23 12:00:44;;;;;;;17.63;12.63;;;;;;;;;;5082763;28;20468;-54
2021/12/23 12:03:12;;;;;;;17.57;12.77;;;;;;;;;;5086633;28;20913;-57
2021/12/23 12:05:39;;;;;;;15.37;11.33;;;;;;;;;;5069660;28;20916;-54
2021/12/23 12:08:14;;;;;;;17.73;12.20;;;;;;;;;;5081547;28;20418;-56
2021/12/23 12:10:45;;;;;;;18.07;12.47;;;;;;;;;;5063967;28;20928;-58
2021/12/23 12:13:14;;;;;;;14.63;10.70;;;;;;;;;;5069435;28;20459;-57
2021/12/23 12:15:49;;;;;;;14.50;11.53;;;;;;;;;;5057662;28;20479;-58
2021/12/23 12:18:19;;;;;;;16.63;11.13;;;;;;;;;;5087381;28;20465;-59
2021/12/23 12:20:51;;;;;;;18.57;12.30;;;;;;;;;;5085014;28;20418;-62
2021/12/23 12:23:23;;;;;;;27.97;11.77;;;;;;;;;;5085268;28;20512;-58
2021/12/23 12:25:57;;;;;;;25.60;12.70;;;;;;;;;;5086569;28;20449;-58
2021/12/23 12:28:30;;;;;;;17.37;10.83;;;;;;;;;;5049642;28;20839;-58
2021/12/23 12:31:29;;;;;;;15.07;9.57;;;;;;;;;;5064557;28;20430;-58
2021/12/23 12:34:10;;;;;;;14.60;11.10;;;;;;;;;;5042524;28;20972;-58
2021/12/23 12:36:48;;;;;;;21.80;12.07;;;;;;;;;;5086228;28;22403;-59
2021/12/23 12:39:17;;;;;;;17.80;10.43;;;;;;;;;;5074621;28;20556;-58
2021/12/23 12:41:43;;;;;;;19.40;11.40;;;;;;;;;;5077717;28;20421;-58
2021/12/23 12:44:21;;;;;;;16.70;11.57;;;;;;;;;;5083807;28;20971;-58
2021/12/23 12:47:08;;;;;;;18.40;10.67;;;;;;;;;;5086016;28;20927;-58
2021/12/23 12:49:40;;;;;;;15.63;11.07;;;;;;;;;;5067633;28;20777;-57
2021/12/23 12:52:07;;;;;;;16.43;10.57;;;;;;;;;;5065821;28;20566;-60
2021/12/23 12:54:34;;;;;;;15.73;10.70;;;;;;;;;;5065432;28;20435;-59
2021/12/23 12:57:05;;;;;;;15.97;10.83;;;;;;;;;;5067164;28;20561;-57
2021/12/23 12:59:37;;;;;;;15.97;11.37;;;;;;;;;;5061741;28;20419;-60
2021/12/23 13:02:03;;;;;;;15.77;9.83;;;;;;;;;;5069061;28;20976;-59
2021/12/23 13:04:41;;;;;;;17.63;11.03;;;;;;;;;;5063974;28;20701;-58
2021/12/23 13:07:26;;;;;;;16.83;10.93;;;;;;;;;;5062163;28;20656;-58
2021/12/23 13:10:18;;;;;;;17.43;11.60;;;;;;;;;;5065010;28;20406;-58
2021/12/23 13:12:46;;;;;;;21.77;11.13;;;;;;;;;;5062076;28;20974;-59
2021/12/23 13:15:18;;;;;;;16.83;10.97;;;;;;;;;;5064235;28;20216;-59
2021/12/23 13:17:44;;;;;;;14.17;9.93;;;;;;;;;;5065212;28;20514;-60
2021/12/23 13:20:10;;;;;;;17.33;11.43;;;;;;;;;;5066754;28;20415;-57
2021/12/23 13:22:38;;;;;;;15.33;11.23;;;;;;;;;;5071634;28;20593;-59
2021/12/23 13:25:05;;;;;;;25.03;10.30;;;;;;;;;;5060580;28;20201;-57
2021/12/23 13:27:31;;;;;;;15.73;9.90;;;;;;;;;;5065170;28;20418;-57
2021/12/23 13:30:05;;;;;;;16.80;11.43;;;;;;;;;;5065499;28;20480;-57
2021/12/23 13:32:31;;;;;;;17.77;11.73;;;;;;;;;;5072094;28;20933;-57
2021/12/23 13:35:07;;;;;;;16.57;10.87;;;;;;;;;;5066821;28;20425;-59
2021/12/23 13:37:34;;;;;;;16.57;11.70;;;;;;;;;;5070849;28;20753;-56
2021/12/23 13:40:00;;;;;;;16.17;11.03;;;;;;;;;;5067030;28;20859;-57
2021/12/23 13:42:26;;;;;;;19.65;13.50;;;;;;;;;;5065520;28;20890;-59
2021/12/23 13:44:55;;;;;;;13.73;10.40;;;;;;;;;;5069072;28;20777;-57
2021/12/23 13:47:22;;;;;;;18.57;11.40;;;;;;;;;;5070853;28;21004;-57
2021/12/23 13:49:55;;;;;;;16.03;11.03;;;;;;;;;;5069229;28;20183;-59
2021/12/23 13:52:26;;;;;;;16.23;10.83;;;;;;;;;;5054700;28;20768;-56
2021/12/23 13:54:54;;;;;;;19.67;10.90;;;;;;;;;;5055664;28;20233;-57
2021/12/23 13:57:21;;;;;;;20.30;10.90;;;;;;;;;;5071437;28;20968;-57
2021/12/23 13:59:48;;;;;;;19.90;10.97;;;;;;;;;;5069430;28;20176;-59
2021/12/23 14:02:14;;;;;;;25.43;11.07;;;;;;;;;;5072232;28;20177;-56
2021/12/23 14:04:42;;;;;;;24.57;11.17;;;;;;;;;;5061741;28;20207;-59
2021/12/23 14:07:13;;;;;;;18.50;12.00;;;;;;;;;;5047186;28;20215;-56
2021/12/23 14:09:44;;;;;;;21.20;11.40;;;;;;;;;;5068861;28;20492;-57
2021/12/23 14:12:14;;;;;;;19.43;12.30;;;;;;;;;;5050568;28;20179;-56
2021/12/23 14:14:54;;;;;;;23.40;11.70;;;;;;;;;;5049731;28;20299;-57
2021/12/23 14:17:24;;;;;;;15.67;11.67;;;;;;;;;;5050379;28;20259;-58
2021/12/23 14:23:17;;;;;;;19.03;11.17;;;;;;;;;;5026343;28;20193;-57
2021/12/23 14:25:52;;;;;;;18.07;11.80;;;;;;;;;;5024713;28;20205;-57
2021/12/23 14:28:20;;;;;;;21.30;11.83;;;;;;;;;;5054628;28;20646;-58
2021/12/23 14:30:51;;;;;;;52.97;14.03;;;;;;;;;;5050067;28;20560;-58
2021/12/23 14:33:25;;;;;;;25.63;12.57;;;;;;;;;;5064751;28;20431;-58
2021/12/23 14:35:55;;;;;;;43.10;12.53;;;;;;;;;;5048170;28;20271;-57
2021/12/23 14:38:26;;;;;;;17.87;11.53;;;;;;;;;;5065856;28;20318;-58
2021/12/23 14:41:04;;;;;;;18.53;11.60;;;;;;;;;;5044347;28;20433;-60
2021/12/23 14:43:53;;;;;;;357.30;32.53;;;;;;;;;;5038317;28;20177;-56
2021/12/23 14:46:20;;;;;;;16.50;10.70;;;;;;;;;;5060112;28;20203;-57
2021/12/23 14:51:37;;;;;;;21.17;12.83;;;;;;;;;;5079052;28;20254;-57
2021/12/23 14:54:06;;;;;;;19.20;11.83;;;;;;;;;;5063332;28;20208;-59
2021/12/23 14:56:33;;;;;;;20.37;12.00;;;;;;;;;;5086383;28;20596;-56
2021/12/23 14:59:09;;;;;;;21.27;11.90;;;;;;;;;;5050531;28;20283;-58
2021/12/23 15:01:36;;;;;;;20.43;12.60;;;;;;;;;;5066857;28;20172;-58
2021/12/23 15:04:06;;;;;;;21.50;12.43;;;;;;;;;;5088034;28;20529;-57
2021/12/23 15:06:32;;;;;;;20.37;11.00;;;;;;;;;;5069447;28;20172;-57
2021/12/23 15:09:02;;;;;;;18.77;11.63;;;;;;;;;;5086055;28;20207;-59
2021/12/23 15:11:30;;;;;;;17.50;12.20;;;;;;;;;;5087931;28;21354;-56
2021/12/23 15:13:57;;;;;;;15.93;10.50;;;;;;;;;;5072493;28;20967;-57
2021/12/23 15:16:28;;;;;;;23.30;12.83;;;;;;;;;;5069709;28;20190;-58
2021/12/23 15:19:20;;;;;;;16.73;11.17;;;;;;;;;;5066035;28;20180;-57
2021/12/23 15:21:53;;;;;;;17.67;11.93;;;;;;;;;;5068158;28;20448;-57
2021/12/23 15:24:31;;;;;;;20.80;11.80;;;;;;;;;;5068837;28;20202;-57
2021/12/23 15:26:58;;;;;;;16.10;11.37;;;;;;;;;;5085169;28;20496;-59
2021/12/23 15:29:47;;;;;;;19.20;13.10;;;;;;;;;;5087814;28;20176;-56
2021/12/23 15:32:24;;;;;;;17.43;11.43;;;;;;;;;;5070024;28;20669;-59
2021/12/23 15:35:00;;;;;;;14.93;11.30;;;;;;;;;;5069326;28;20611;-57
2021/12/23 15:37:36;;;;;;;17.60;11.73;;;;;;;;;;5066483;28;20188;-58
2021/12/23 15:40:04;;;;;;;14.00;10.40;;;;;;;;;;5072687;28;20179;-58
2021/12/23 15:42:30;;;;;;;16.43;11.80;;;;;;;;;;5087615;28;20187;-56